Somers, IA (50586)

3:45 AM CST on January 16, 2018 (GMT -0600)
3 miles ssw of knierim | | Change Station
Active Advisory: Wind Chill Warning

Elev 1179 ft 42.42 °N, 94.48 °W | Updated 27 seconds ago

Overcast
Overcast
-7.8 °F
Feels Like -27 °F
N
12.0
Wind Variable Wind from WNW

Today
High -- | Low -- °F
--% Chance of Precip.
Yesterday
High -- | Low -- °F
Precip. -- in
Pressure 30.63 in
Visibility 4.0 miles
Clouds Few 1400 ft
Mostly Cloudy 1900 ft
Overcast 6000 ft
Windchill -27 °F
Dew Point -11 °F
Humidity 85%
Rainfall 0.00 in
Snow Depth Not available.
7:43 AM 5:11 PM
Waning Crescent, 0% visible
SPECI KFOD 160936Z AUTO 32009KT 4SM -SN FEW014 BKN019 OVC060 M22/M25 A3063 RMK AO2 P0000 FZRANO
Pressure 30.63 in
Visibility 4.0 miles
Clouds Few 1400 ft
Mostly Cloudy 1900 ft
Overcast 6000 ft
Windchill -27 °F
Dew Point -11 °F
Humidity 85%
Rainfall 0.00 in
Snow Depth Not available.
7:43 AM 5:11 PM
Waning Crescent, 0% visible
SPECI KFOD 160936Z AUTO 32009KT 4SM -SN FEW014 BKN019 OVC060 M22/M25 A3063 RMK AO2 P0000 FZRANO

Get Your Daily Forecast Email!

Thanks for signing up!

Be on the lookout for a verification email in your inbox.

You'll start receiving severe weather alerts in your inbox..

×

10-Day Weather Forecast

Almanac

Astronomy

Jan. 16, 2018 Rise Set
Actual Time
Civil Twilight
Nautical Twilight
Astronomical Twilight
Moon
Length of Visible Light
Length of Day
Tomorrow will be .
, % of the Moon is Illuminated

Today's Extremes

State Highs State Lows

Community

WunderPhotos

Category 6

Welcome to Category 6. This is the collective home for Weather Underground's featured writeups by Dr. Jeff Masters (right), Bob Henson (left), Chris Burt, and other regular contributors.

Nearby

Air Quality

  Air Quality AQ Index Pollutant
Not available.

Snow Depth

Station Depth Elevation

Earthquake Activity

City Distance Mag. Time & Date
Minimum magnitude displayed is 2.5.

Coastal Water Temperatures

Place Temperature

Stations

Nearby Weather Stations

Station Location Temp. Windchill Dew Point Humidity Wind Precip. Elev Updated Type
                   

Watches & Warnings

Wind Chill Warning
Issued: 8:59 PM CST Jan. 15, 2018 – National Weather Service

... Wind chill warning remains in effect until noon CST Tuesday...

* what... dangerously cold wind chills expected. The dangerously
cold wind chills will cause frostbite in as little as 10
minutes to exposed skin. Expect wind chills to range from 15
below zero to 30 below zero.

* Where... portions of central and southwest Iowa.

* When... now to noon Tuesday.

Precautionary/preparedness actions...

A wind chill warning means the combination of very cold air and
the wind will create dangerously low wind chill values. Frost
bite can occur quickly and even hypothermia or death if
precautions are not taken.